Time;durP1;ratioP1;P1;durP2;ratioP2;P2;SDS_P1;SDS_P2;PMS_P1;PMS_P2;Temp;Humidity;BMP_temperature;BMP_pressure;BME280_temperature;BME280_humidity;BME280_pressure;Samples;Min_cycle;Max_cycle;Signal;HPM_P1;HPM_P2
2023/03/08 00:00:04;;;;;;;12.70;7.20;;;;;;;;;;102483;1285;5087324;-79
2023/03/08 00:03:27;;;;;;;12.40;7.60;;;;;;;;;;107075;1276;22521;-81
2023/03/08 00:06:05;;;;;;;11.60;6.60;;;;;;;;;;106949;1276;22673;-81
2023/03/08 00:08:35;;;;;;;11.00;6.70;;;;;;;;;;107022;1256;22643;-77
2023/03/08 00:11:05;;;;;;;10.50;5.90;;;;;;;;;;106872;1276;22510;-78
2023/03/08 00:20:40;;;;;;;10.70;5.60;;;;;;;;;;107057;1276;24198;-81
2023/03/08 00:23:37;;;;;;;;;;;;;;;;;;;;;
2023/03/08 00:26:07;;;;;;;11.20;5.20;;;;;;;;;;107010;1276;24218;-82
2023/03/08 00:28:56;;;;;;;13.30;6.50;;;;;;;;;;107006;1256;23314;-76
2023/03/08 00:31:26;;;;;;;11.60;4.50;;;;;;;;;;107054;1276;23122;-79
2023/03/08 00:33:56;;;;;;;8.40;3.30;;;;;;;;;;107058;1276;22647;-80
2023/03/08 00:36:53;;;;;;;9.00;3.50;;;;;;;;;;106908;1276;22555;-81
2023/03/08 00:39:19;;;;;;;10.20;3.80;;;;;;;;;;106917;1260;22520;-79
2023/03/08 00:41:59;;;;;;;;;;;;;;;;;;;;;
2023/03/08 00:44:26;;;;;;;9.40;3.60;;;;;;;;;;106837;1277;22583;-76
2023/03/08 00:46:55;;;;;;;7.70;2.40;;;;;;;;;;106876;1277;22562;-78
2023/03/08 00:50:23;;;;;;;6.90;2.50;;;;;;;;;;106854;1261;22519;-81
2023/03/08 00:52:47;;;;;;;7.10;2.60;;;;;;;;;;106868;1277;25425;-76
2023/03/08 00:55:14;;;;;;;5.80;2.00;;;;;;;;;;106835;1277;23211;-79
2023/03/08 00:57:41;;;;;;;6.30;1.90;;;;;;;;;;106870;1264;22537;-75
2023/03/08 01:00:11;;;;;;;9.30;3.40;;;;;;;;;;106821;1277;25586;-81
2023/03/08 01:03:12;;;;;;;;;;;;;;;;;;;;;
2023/03/08 01:06:03;;;;;;;8.00;2.90;;;;;;;;;;106847;1277;22536;-77
2023/03/08 01:11:27;;;;;;;6.70;2.60;;;;;;;;;;106861;1277;22987;-78
2023/03/08 01:14:18;;;;;;;8.60;3.40;;;;;;;;;;106850;1277;24180;-80
2023/03/08 01:16:46;;;;;;;8.30;3.10;;;;;;;;;;106829;1277;25353;-77
2023/03/08 01:20:21;;;;;;;11.10;4.00;;;;;;;;;;106848;1269;22520;-81
2023/03/08 01:22:35;;;;;;;9.80;4.10;;;;;;;;;;106825;1277;23644;-78
2023/03/08 01:25:29;;;;;;;9.50;4.00;;;;;;;;;;106840;1277;22571;-81
2023/03/08 01:27:56;;;;;;;8.60;3.40;;;;;;;;;;106870;1277;25326;-76
2023/03/08 01:30:57;;;;;;;8.60;3.30;;;;;;;;;;106852;1270;24809;-79
2023/03/08 01:41:04;;;;;;;9.90;4.20;;;;;;;;;;106854;1277;25474;-76
2023/03/08 01:43:58;;;;;;;9.90;4.20;;;;;;;;;;106855;1277;24681;-75
2023/03/08 01:46:26;;;;;;;10.30;4.10;;;;;;;;;;106821;1277;22543;-76
2023/03/08 01:49:09;;;;;;;11.40;4.30;;;;;;;;;;106837;1254;25329;-77
2023/03/08 01:51:58;;;;;;;6.70;2.50;;;;;;;;;;107041;1275;25391;-79
2023/03/08 01:54:55;;;;;;;10.10;4.30;;;;;;;;;;107105;1275;22524;-79
2023/03/08 01:57:52;;;;;;;;;;;;;;;;;;;;;
2023/03/08 02:00:24;;;;;;;8.10;3.30;;;;;;;;;;107125;1256;24188;-80
2023/03/08 02:03:22;;;;;;;8.00;2.70;;;;;;;;;;107050;1275;22521;-80
2023/03/08 02:05:50;;;;;;;8.10;3.60;;;;;;;;;;107117;1275;25489;-76
2023/03/08 02:08:20;;;;;;;9.70;3.80;;;;;;;;;;106894;1275;25322;-78
2023/03/08 02:11:07;;;;;;;10.30;3.90;;;;;;;;;;106903;1259;24333;-77
2023/03/08 02:13:48;;;;;;;8.20;3.50;;;;;;;;;;107095;1275;25449;-74
2023/03/08 02:16:30;;;;;;;10.00;4.50;;;;;;;;;;106887;1274;24362;-82
2023/03/08 02:19:23;;;;;;;10.20;4.20;;;;;;;;;;107135;1270;22523;-75
2023/03/08 02:22:10;;;;;;;8.80;4.00;;;;;;;;;;107057;1256;22540;-76
2023/03/08 02:24:39;;;;;;;8.70;3.10;;;;;;;;;;107148;1275;23516;-80
2023/03/08 02:27:16;;;;;;;7.30;2.60;;;;;;;;;;106881;1274;22591;-79
2023/03/08 02:29:45;;;;;;;5.20;1.60;;;;;;;;;;107022;1254;25259;-75
2023/03/08 02:32:57;;;;;;;6.30;2.20;;;;;;;;;;106905;1275;23134;-81
2023/03/08 02:35:41;;;;;;;;;;;;;;;;;;;;;
2023/03/08 02:38:26;;;;;;;6.20;2.00;;;;;;;;;;107050;1275;22500;-81
2023/03/08 02:42:02;;;;;;;8.10;2.50;;;;;;;;;;107052;1256;22521;-81
2023/03/08 02:44:44;;;;;;;5.30;1.60;;;;;;;;;;107036;1275;22524;-77
2023/03/08 02:47:16;;;;;;;6.40;1.90;;;;;;;;;;106956;1275;22520;-80
2023/03/08 02:50:20;;;;;;;6.20;2.30;;;;;;;;;;107096;1275;23619;-76
2023/03/08 02:53:27;;;;;;;7.40;2.70;;;;;;;;;;107056;1256;25343;-79
2023/03/08 02:59:25;;;;;;;5.50;1.60;;;;;;;;;;106666;1281;22520;-78
2023/03/08 03:02:13;;;;;;;7.10;2.00;;;;;;;;;;106438;1265;25365;-76
2023/03/08 03:04:43;;;;;;;5.70;1.50;;;;;;;;;;106513;1281;22541;-80
2023/03/08 03:08:00;;;;;;;7.10;1.50;;;;;;;;;;106565;1281;22660;-81
2023/03/08 03:10:14;;;;;;;;;;;;;;;;;;;;;
2023/03/08 03:13:24;;;;;;;7.70;1.50;;;;;;;;;;106512;1281;25476;-78
2023/03/08 03:15:57;;;;;;;7.00;1.60;;;;;;;;;;106563;1281;24218;-75
2023/03/08 03:18:50;;;;;;;4.80;1.30;;;;;;;;;;106640;1281;24468;-77
2023/03/08 03:21:57;;;;;;;6.70;1.40;;;;;;;;;;106657;1262;22526;-81
2023/03/08 03:24:44;;;;;;;;;;;;;;;;;;;;;
2023/03/08 03:27:57;;;;;;;7.90;2.30;;;;;;;;;;106443;1281;22531;-78
2023/03/08 03:31:10;;;;;;;6.50;1.80;;;;;;;;;;106675;1281;24221;-76
2023/03/08 03:33:34;;;;;;;8.40;2.60;;;;;;;;;;106641;1262;24649;-82
2023/03/08 03:36:25;;;;;;;6.60;2.20;;;;;;;;;;106772;1275;22498;-76
2023/03/08 03:39:33;;;;;;;7.70;2.20;;;;;;;;;;107033;1272;25382;-77
2023/03/08 03:42:14;;;;;;;7.40;2.40;;;;;;;;;;106991;1256;25469;-76
2023/03/08 03:45:06;;;;;;;7.50;2.10;;;;;;;;;;106908;1275;25248;-78
2023/03/08 03:47:54;;;;;;;10.70;2.40;;;;;;;;;;107146;1274;24193;-76
2023/03/08 03:51:02;;;;;;;10.80;3.20;;;;;;;;;;107030;1274;22516;-78
2023/03/08 03:53:53;;;;;;;13.40;3.90;;;;;;;;;;106996;1276;22611;-81
2023/03/08 03:57:09;;;;;;;11.10;4.10;;;;;;;;;;106978;1275;22514;-81
2023/03/08 03:59:51;;;;;;;9.70;3.30;;;;;;;;;;107021;1274;22566;-81
2023/03/08 04:02:49;;;;;;;;;;;;;;;;;;;;;
2023/03/08 04:06:24;;;;;;;7.90;3.10;;;;;;;;;;107225;1273;25293;-78
2023/03/08 04:09:10;;;;;;;7.30;2.60;;;;;;;;;;107219;1273;22510;-78
2023/03/08 04:15:26;;;;;;;6.90;2.10;;;;;;;;;;106393;1275;22574;-76
2023/03/08 04:17:56;;;;;;;7.60;2.00;;;;;;;;;;106353;1283;22578;-79
2023/03/08 04:20:35;;;;;;;6.30;1.70;;;;;;;;;;106424;1283;24274;-74
2023/03/08 04:23:12;;;;;;;5.30;1.80;;;;;;;;;;106385;1259;26475;-79
2023/03/08 04:26:12;;;;;;;;;;;;;;;;;;;;;
2023/03/08 04:29:04;;;;;;;6.40;1.70;;;;;;;;;;106471;1282;24449;-81
2023/03/08 04:32:23;;;;;;;6.10;1.50;;;;;;;;;;106398;1281;24370;-80
2023/03/08 04:34:25;;;;;;;5.10;1.50;;;;;;;;;;106435;1281;22483;-77
2023/03/08 04:36:55;;;;;;;6.60;1.60;;;;;;;;;;106480;1282;22681;-77
2023/03/08 04:39:47;;;;;;;;;;;;;;;;;;;;;
2023/03/08 04:42:15;;;;;;;7.80;2.20;;;;;;;;;;106464;1282;22609;-78
2023/03/08 04:44:53;;;;;;;8.50;2.50;;;;;;;;;;106414;1269;22531;-77
2023/03/08 04:47:27;;;;;;;6.00;1.80;;;;;;;;;;106435;1281;22702;-80
2023/03/08 04:50:14;;;;;;;5.80;2.10;;;;;;;;;;106392;1282;25325;-76
2023/03/08 04:52:43;;;;;;;6.80;2.30;;;;;;;;;;106985;1273;24877;-81
2023/03/08 04:56:00;;;;;;;7.10;2.10;;;;;;;;;;107152;1273;22517;-81
2023/03/08 04:58:33;;;;;;;7.00;2.20;;;;;;;;;;107219;1273;24240;-77
2023/03/08 05:01:10;;;;;;;6.40;1.80;;;;;;;;;;107030;1266;22490;-76
2023/03/08 05:03:57;;;;;;;4.90;1.60;;;;;;;;;;107062;1273;22515;-78
2023/03/08 05:10:05;;;;;;;5.20;1.60;;;;;;;;;;106513;1282;22530;-81
2023/03/08 05:13:02;;;;;;;5.80;1.50;;;;;;;;;;106499;1282;24361;-80
2023/03/08 05:15:29;;;;;;;5.60;1.30;;;;;;;;;;106462;1262;25319;-78
2023/03/08 05:18:08;;;;;;;5.40;1.50;;;;;;;;;;106489;1282;22526;-81
2023/03/08 05:21:00;;;;;;;4.80;1.50;;;;;;;;;;106433;1281;25351;-78
2023/03/08 05:23:40;;;;;;;;;;;;;;;;;;;;;
2023/03/08 05:29:11;;;;;;;;;;;;;;;;;;;;;
2023/03/08 05:32:08;;;;;;;7.00;2.30;;;;;;;;;;106423;1282;25335;-78
2023/03/08 05:34:55;;;;;;;6.40;2.00;;;;;;;;;;106515;1282;22523;-75
2023/03/08 05:38:26;;;;;;;6.50;2.10;;;;;;;;;;106392;1275;24257;-81
2023/03/08 05:41:03;;;;;;;9.30;3.30;;;;;;;;;;106434;1282;22546;-77
2023/03/08 05:44:10;;;;;;;8.70;2.90;;;;;;;;;;106483;1282;22529;-80
2023/03/08 05:47:29;;;;;;;;;;;;;;;;;;;;;
2023/03/08 05:50:15;;;;;;;6.20;2.50;;;;;;;;;;107216;1273;22521;-79
2023/03/08 05:52:45;;;;;;;5.70;2.30;;;;;;;;;;107197;1273;24313;-80
2023/03/08 05:55:28;;;;;;;;;;;;;;;;;;;;;
2023/03/08 05:58:17;;;;;;;7.80;2.80;;;;;;;;;;107421;1253;23036;-81
2023/03/08 06:00:47;;;;;;;7.30;2.70;;;;;;;;;;107179;1273;22514;-76
2023/03/08 06:03:20;;;;;;;6.70;2.80;;;;;;;;;;107187;1273;25337;-76
2023/03/08 06:06:07;;;;;;;9.30;2.60;;;;;;;;;;107021;1273;22517;-76
2023/03/08 06:08:47;;;;;;;;;;;;;;;;;;;;;
2023/03/08 06:11:47;;;;;;;8.60;2.90;;;;;;;;;;107209;1270;22637;-79
2023/03/08 06:14:14;;;;;;;7.70;2.80;;;;;;;;;;107122;1273;22517;-81
2023/03/08 06:16:49;;;;;;;8.50;2.50;;;;;;;;;;106964;1266;22521;-81
2023/03/08 06:19:36;;;;;;;7.30;2.20;;;;;;;;;;107060;1257;22629;-80
2023/03/08 06:22:35;;;;;;;16.20;4.60;;;;;;;;;;107004;1274;22515;-79
2023/03/08 06:25:30;;;;;;;22.50;7.30;;;;;;;;;;107078;1267;22620;-75
2023/03/08 06:28:00;;;;;;;27.40;8.40;;;;;;;;;;106949;1257;24291;-75
2023/03/08 06:30:52;;;;;;;;;;;;;;;;;;;;;
2023/03/08 06:33:46;;;;;;;34.40;10.60;;;;;;;;;;107181;1273;22521;-79
2023/03/08 06:36:38;;;;;;;35.90;11.60;;;;;;;;;;106861;1274;22606;-75
2023/03/08 06:39:29;;;;;;;37.90;11.20;;;;;;;;;;106808;1274;22540;-80
2023/03/08 06:42:02;;;;;;;30.90;9.10;;;;;;;;;;106992;1274;23901;-79
2023/03/08 06:44:34;;;;;;;25.10;7.60;;;;;;;;;;107096;1274;22561;-78
2023/03/08 06:47:07;;;;;;;19.20;7.50;;;;;;;;;;107126;1274;24215;-77
2023/03/08 06:49:57;;;;;;;20.50;7.20;;;;;;;;;;107019;1262;22510;-76
2023/03/08 06:52:45;;;;;;;34.80;9.00;;;;;;;;;;107019;1274;24056;-75
2023/03/08 06:55:33;;;;;;;25.80;7.50;;;;;;;;;;107147;1274;22521;-77
2023/03/08 06:58:38;;;;;;;24.90;8.70;;;;;;;;;;107161;1274;25201;-76
2023/03/08 07:01:44;;;;;;;27.70;10.40;;;;;;;;;;106997;1264;22523;-81
2023/03/08 07:04:19;;;;;;;20.60;8.30;;;;;;;;;;107130;1274;25259;-79
2023/03/08 07:07:18;;;;;;;16.20;6.30;;;;;;;;;;106900;1274;22525;-81
2023/03/08 07:09:49;;;;;;;19.40;6.80;;;;;;;;;;106950;1257;22562;-81
2023/03/08 07:12:42;;;;;;;18.50;6.90;;;;;;;;;;106767;1274;22530;-78
2023/03/08 07:15:31;;;;;;;19.10;7.90;;;;;;;;;;107009;1274;22516;-79
2023/03/08 07:17:59;;;;;;;16.00;5.90;;;;;;;;;;107152;1274;23901;-75
2023/03/08 07:20:39;;;;;;;18.00;6.10;;;;;;;;;;107129;1265;25623;-78
2023/03/08 07:23:09;;;;;;;14.30;6.20;;;;;;;;;;107146;1274;22526;-77
2023/03/08 07:25:42;;;;;;;16.70;6.60;;;;;;;;;;106913;1274;25220;-77
2023/03/08 07:28:29;;;;;;;13.60;6.10;;;;;;;;;;107071;1274;22520;-81
2023/03/08 07:31:01;;;;;;;20.20;9.40;;;;;;;;;;107038;1274;24000;-78
2023/03/08 07:33:31;;;;;;;16.90;6.90;;;;;;;;;;106932;1274;22521;-76
2023/03/08 07:37:04;;;;;;;13.80;5.50;;;;;;;;;;107104;1274;24695;-81
2023/03/08 07:39:46;;;;;;;76.00;18.00;;;;;;;;;;106436;1283;25325;-75
2023/03/08 07:42:26;;;;;;;;;;;;;;;;;;;;;
2023/03/08 07:45:23;;;;;;;149.00;42.60;;;;;;;;;;106389;1282;23006;-75
2023/03/08 07:48:31;;;;;;;203.80;64.80;;;;;;;;;;106438;1282;24322;-79
2023/03/08 07:51:05;;;;;;;102.90;37.40;;;;;;;;;;106460;1282;22596;-81
2023/03/08 07:53:33;;;;;;;33.70;13.10;;;;;;;;;;106431;1283;24201;-77
2023/03/08 07:56:02;;;;;;;25.70;10.30;;;;;;;;;;106421;1283;22527;-79
2023/03/08 07:58:38;;;;;;;22.90;9.40;;;;;;;;;;106377;1283;22538;-76
2023/03/08 08:01:37;;;;;;;;;;;;;;;;;;;;;
2023/03/08 08:04:11;;;;;;;24.00;9.20;;;;;;;;;;106456;1282;24478;-82
2023/03/08 08:06:44;;;;;;;19.70;7.80;;;;;;;;;;106428;1282;22536;-80
2023/03/08 08:09:31;;;;;;;22.40;10.70;;;;;;;;;;106450;1282;22531;-81
2023/03/08 08:12:07;;;;;;;39.30;17.70;;;;;;;;;;106449;1273;22536;-77
2023/03/08 08:14:55;;;;;;;33.90;14.80;;;;;;;;;;106444;1283;24352;-75
2023/03/08 08:17:42;;;;;;;83.90;31.00;;;;;;;;;;106880;1275;22530;-80
2023/03/08 08:20:13;;;;;;;21.40;9.80;;;;;;;;;;106876;1275;24215;-79
2023/03/08 08:22:52;;;;;;;13.70;6.20;;;;;;;;;;106894;1260;24525;-79
2023/03/08 08:25:21;;;;;;;15.30;5.50;;;;;;;;;;106995;1275;27778;-76
2023/03/08 08:27:49;;;;;;;23.00;10.70;;;;;;;;;;107198;1275;24265;-78
2023/03/08 08:30:16;;;;;;;29.60;14.20;;;;;;;;;;107146;1275;22531;-76
2023/03/08 08:32:43;;;;;;;19.30;7.80;;;;;;;;;;106938;1257;22549;-79
2023/03/08 08:35:12;;;;;;;19.60;8.00;;;;;;;;;;106925;1275;24234;-82
2023/03/08 08:38:25;;;;;;;15.10;6.80;;;;;;;;;;106947;1275;22573;-75
2023/03/08 08:40:37;;;;;;;13.10;5.40;;;;;;;;;;107027;1275;25442;-76
2023/03/08 08:43:37;;;;;;;16.00;6.60;;;;;;;;;;107101;1275;25337;-75
2023/03/08 08:46:04;;;;;;;15.00;6.30;;;;;;;;;;107154;1275;25343;-80
2023/03/08 08:48:35;;;;;;;13.50;6.30;;;;;;;;;;106902;1276;22516;-74
2023/03/08 08:51:02;;;;;;;45.80;25.70;;;;;;;;;;106878;1251;24221;-82
2023/03/08 08:53:32;;;;;;;13.10;6.00;;;;;;;;;;106889;1257;25537;-82
2023/03/08 08:56:43;;;;;;;10.80;3.90;;;;;;;;;;107148;1275;24188;-79
2023/03/08 08:59:10;;;;;;;17.30;6.40;;;;;;;;;;106906;1275;22529;-78
2023/03/08 09:01:42;;;;;;;15.10;6.50;;;;;;;;;;107141;1251;22569;-77
2023/03/08 09:04:12;;;;;;;13.80;6.20;;;;;;;;;;106852;1275;22500;-75
2023/03/08 09:06:52;;;;;;;12.50;5.90;;;;;;;;;;106886;1275;22537;-79
2023/03/08 09:09:19;;;;;;;13.00;5.40;;;;;;;;;;107105;1275;22556;-81
2023/03/08 09:11:47;;;;;;;10.90;5.20;;;;;;;;;;107108;1275;23840;-75
2023/03/08 09:14:16;;;;;;;12.30;5.60;;;;;;;;;;106898;1257;22654;-79
2023/03/08 09:16:46;;;;;;;12.90;5.80;;;;;;;;;;107116;1275;24208;-75
2023/03/08 09:19:18;;;;;;;17.40;9.70;;;;;;;;;;107152;1274;24206;-80
2023/03/08 09:21:48;;;;;;;16.60;10.20;;;;;;;;;;107122;1275;25240;-75
2023/03/08 09:24:21;;;;;;;15.30;8.70;;;;;;;;;;107088;1261;23881;-75
2023/03/08 09:26:48;;;;;;;15.30;6.80;;;;;;;;;;107118;1275;24243;-75
2023/03/08 09:29:17;;;;;;;12.90;5.80;;;;;;;;;;106859;1275;25220;-74
2023/03/08 09:31:53;;;;;;;14.00;6.50;;;;;;;;;;107120;1275;22489;-80
2023/03/08 09:34:23;;;;;;;16.40;6.40;;;;;;;;;;107096;1256;22530;-78
2023/03/08 09:36:50;;;;;;;16.10;7.70;;;;;;;;;;107127;1275;22537;-78
2023/03/08 09:39:20;;;;;;;15.50;7.20;;;;;;;;;;106884;1275;24535;-75
2023/03/08 09:41:58;;;;;;;15.70;7.70;;;;;;;;;;106901;1275;22769;-74
2023/03/08 09:44:45;;;;;;;15.30;7.60;;;;;;;;;;106904;1260;22529;-81
2023/03/08 09:47:15;;;;;;;16.00;8.40;;;;;;;;;;107132;1274;25271;-78
2023/03/08 09:49:46;;;;;;;14.40;6.70;;;;;;;;;;107167;1274;22524;-80
2023/03/08 09:52:34;;;;;;;16.30;7.80;;;;;;;;;;107154;1274;24215;-81
2023/03/08 09:55:28;;;;;;;16.60;9.20;;;;;;;;;;107126;1253;22534;-79
2023/03/08 09:58:13;;;;;;;16.50;8.20;;;;;;;;;;106462;1281;24456;-78
2023/03/08 10:00:43;;;;;;;16.70;8.30;;;;;;;;;;106698;1281;22543;-79
2023/03/08 10:03:10;;;;;;;15.70;8.20;;;;;;;;;;106427;1257;25378;-78
2023/03/08 10:05:40;;;;;;;17.90;8.80;;;;;;;;;;106424;1280;25275;-74
2023/03/08 10:08:12;;;;;;;15.90;8.70;;;;;;;;;;106674;1280;24221;-76
2023/03/08 10:10:55;;;;;;;17.70;8.50;;;;;;;;;;106416;1281;25373;-76
2023/03/08 10:13:28;;;;;;;15.70;8.00;;;;;;;;;;106659;1263;25279;-77
2023/03/08 10:16:01;;;;;;;16.90;8.40;;;;;;;;;;106454;1280;22604;-76
2023/03/08 10:18:30;;;;;;;23.30;9.20;;;;;;;;;;106744;1280;25451;-74
2023/03/08 10:21:00;;;;;;;18.90;9.20;;;;;;;;;;106680;1280;22527;-75
2023/03/08 10:23:30;;;;;;;19.10;9.40;;;;;;;;;;106381;1258;25230;-77
2023/03/08 10:26:05;;;;;;;16.80;8.50;;;;;;;;;;106417;1281;22527;-74
2023/03/08 10:28:32;;;;;;;18.20;7.70;;;;;;;;;;106907;1274;24043;-73
2023/03/08 10:31:09;;;;;;;17.20;8.40;;;;;;;;;;107151;1274;25335;-77
2023/03/08 10:33:35;;;;;;;20.10;8.30;;;;;;;;;;107138;1274;22529;-75
2023/03/08 10:36:23;;;;;;;19.30;9.20;;;;;;;;;;106878;1260;24372;-78
2023/03/08 10:38:58;;;;;;;19.70;8.60;;;;;;;;;;107135;1274;24376;-80
2023/03/08 10:41:46;;;;;;;15.90;7.00;;;;;;;;;;107111;1274;22715;-75
2023/03/08 10:44:39;;;;;;;;;;;;;;;;;;;;;
2023/03/08 10:47:27;;;;;;;14.30;6.60;;;;;;;;;;107177;1274;24343;-76
2023/03/08 10:50:23;;;;;;;17.20;7.10;;;;;;;;;;107063;1274;25434;-74
2023/03/08 10:52:53;;;;;;;14.80;6.20;;;;;;;;;;107095;1273;22533;-78
2023/03/08 10:55:41;;;;;;;;;;;;;;;;;;;;;
2023/03/08 10:58:33;;;;;;;18.70;7.70;;;;;;;;;;106995;1275;23125;-77
2023/03/08 11:01:20;;;;;;;20.00;9.30;;;;;;;;;;107174;1274;23503;-76
2023/03/08 11:04:03;;;;;;;18.50;9.50;;;;;;;;;;107130;1274;23518;-77
2023/03/08 11:06:31;;;;;;;14.30;7.30;;;;;;;;;;107089;1253;24978;-75
2023/03/08 11:09:18;;;;;;;14.00;7.40;;;;;;;;;;107133;1274;25312;-74
2023/03/08 11:11:45;;;;;;;17.70;7.40;;;;;;;;;;107170;1274;23115;-80
2023/03/08 11:14:13;;;;;;;15.40;6.70;;;;;;;;;;107199;1274;23863;-80
2023/03/08 11:16:50;;;;;;;14.30;7.30;;;;;;;;;;107122;1254;22447;-78
2023/03/08 11:19:34;;;;;;;13.40;6.50;;;;;;;;;;106955;1274;22518;-79
2023/03/08 11:22:10;;;;;;;15.70;6.20;;;;;;;;;;107074;1273;22520;-74
2023/03/08 11:25:01;;;;;;;14.10;6.40;;;;;;;;;;107122;1273;22618;-73
2023/03/08 11:27:49;;;;;;;12.50;5.80;;;;;;;;;;106839;1274;25379;-73
2023/03/08 11:30:24;;;;;;;13.60;5.70;;;;;;;;;;107163;1274;24334;-76
2023/03/08 11:33:06;;;;;;;12.30;5.90;;;;;;;;;;107143;1274;23122;-75
2023/03/08 11:35:55;;;;;;;13.30;6.00;;;;;;;;;;107058;1251;22734;-80
2023/03/08 11:38:54;;;;;;;12.50;6.60;;;;;;;;;;107131;1274;22524;-74
2023/03/08 11:41:22;;;;;;;13.80;6.70;;;;;;;;;;107126;1267;22554;-76
2023/03/08 11:44:08;;;;;;;16.10;8.30;;;;;;;;;;107130;1270;24216;-73
2023/03/08 11:47:16;;;;;;;14.30;6.80;;;;;;;;;;107182;1261;22987;-75
2023/03/08 11:50:08;;;;;;;16.60;7.80;;;;;;;;;;107133;1266;22541;-76
2023/03/08 11:52:49;;;;;;;15.50;7.20;;;;;;;;;;107028;1272;22772;-74
2023/03/08 11:55:42;;;;;;;23.20;10.30;;;;;;;;;;106818;1267;24218;-76
2023/03/08 11:58:55;;;;;;;16.70;9.40;;;;;;;;;;106974;1254;22524;-76
2023/03/08 12:01:52;;;;;;;;;;;;;;;;;;;;;
2023/03/08 12:04:45;;;;;;;17.50;7.60;;;;;;;;;;107227;1267;24521;-73
2023/03/08 12:07:41;;;;;;;;;;;;;;;;;;;;;
2023/03/08 12:10:11;;;;;;;16.30;7.20;;;;;;;;;;106558;1274;25461;-75
2023/03/08 12:12:59;;;;;;;14.50;6.20;;;;;;;;;;106646;1275;22566;-75
2023/03/08 12:15:35;;;;;;;12.60;5.90;;;;;;;;;;106661;1276;22527;-75
2023/03/08 12:18:09;;;;;;;13.10;6.30;;;;;;;;;;106577;1274;25346;-78
2023/03/08 12:20:57;;;;;;;;;;;;;;;;;;;;;
2023/03/08 12:23:48;;;;;;;16.90;7.30;;;;;;;;;;106578;1275;22790;-85
2023/03/08 12:26:24;;;;;;;14.70;6.90;;;;;;;;;;106456;1275;25294;-76
2023/03/08 12:29:02;;;;;;;11.90;6.00;;;;;;;;;;106552;1262;25339;-77
2023/03/08 12:31:32;;;;;;;12.60;6.30;;;;;;;;;;106444;1277;24340;-75
2023/03/08 12:34:10;;;;;;;14.50;6.90;;;;;;;;;;106555;1274;22761;-74
2023/03/08 12:36:38;;;;;;;16.00;7.20;;;;;;;;;;106592;1275;22530;-74
2023/03/08 12:39:07;;;;;;;13.90;7.10;;;;;;;;;;106416;1263;22498;-78
2023/03/08 12:41:34;;;;;;;15.10;7.80;;;;;;;;;;106460;1275;24350;-78
2023/03/08 12:44:03;;;;;;;16.20;7.10;;;;;;;;;;106662;1275;23471;-77
2023/03/08 12:46:56;;;;;;;13.00;6.20;;;;;;;;;;107114;1269;25271;-77
2023/03/08 12:49:29;;;;;;;14.50;7.40;;;;;;;;;;107134;1256;22660;-78
2023/03/08 12:52:16;;;;;;;13.70;6.80;;;;;;;;;;107050;1267;25551;-75
2023/03/08 12:54:55;;;;;;;17.80;8.00;;;;;;;;;;106968;1267;24186;-74
2023/03/08 12:57:24;;;;;;;14.20;6.80;;;;;;;;;;107036;1267;22521;-73
2023/03/08 12:59:59;;;;;;;13.60;6.90;;;;;;;;;;107149;1255;22531;-78
2023/03/08 13:02:33;;;;;;;16.80;8.50;;;;;;;;;;107114;1266;25226;-77
2023/03/08 13:05:18;;;;;;;16.00;8.20;;;;;;;;;;106944;1267;23333;-74
2023/03/08 13:07:59;;;;;;;18.70;8.10;;;;;;;;;;107194;1251;23881;-76
2023/03/08 13:10:34;;;;;;;17.90;8.70;;;;;;;;;;107117;1269;22532;-76
2023/03/08 13:13:10;;;;;;;16.60;8.20;;;;;;;;;;107152;1268;22528;-76
2023/03/08 13:16:05;;;;;;;18.90;9.60;;;;;;;;;;107130;1266;24186;-76
2023/03/08 13:18:35;;;;;;;19.70;9.10;;;;;;;;;;107232;1255;22941;-77
2023/03/08 13:21:05;;;;;;;18.60;9.10;;;;;;;;;;107293;1267;25328;-78
2023/03/08 13:23:39;;;;;;;16.50;8.60;;;;;;;;;;107134;1269;24219;-74
2023/03/08 13:26:22;;;;;;;19.20;9.70;;;;;;;;;;107206;1266;25471;-76
2023/03/08 13:28:49;;;;;;;19.50;9.70;;;;;;;;;;107166;1254;24368;-76
2023/03/08 13:31:23;;;;;;;18.60;10.00;;;;;;;;;;107098;1267;24314;-73
2023/03/08 13:34:03;;;;;;;16.40;9.50;;;;;;;;;;107163;1267;24699;-78
2023/03/08 13:36:32;;;;;;;20.10;10.20;;;;;;;;;;106871;1269;24317;-73
2023/03/08 13:39:03;;;;;;;19.70;10.90;;;;;;;;;;107011;1253;22528;-75
2023/03/08 13:41:38;;;;;;;22.30;11.50;;;;;;;;;;106985;1267;25344;-74
2023/03/08 13:44:22;;;;;;;21.80;11.80;;;;;;;;;;107177;1266;22586;-77
2023/03/08 13:47:12;;;;;;;21.00;10.90;;;;;;;;;;107277;1273;25337;-74
2023/03/08 13:50:05;;;;;;;19.50;10.20;;;;;;;;;;107091;1273;22783;-75
2023/03/08 13:52:35;;;;;;;23.00;11.80;;;;;;;;;;107138;1273;25373;-75
2023/03/08 13:55:23;;;;;;;21.90;11.90;;;;;;;;;;107192;1273;24243;-78
2023/03/08 13:57:52;;;;;;;21.60;11.50;;;;;;;;;;106974;1273;22636;-74
2023/03/08 14:00:43;;;;;;;24.60;12.00;;;;;;;;;;107098;1253;25389;-76
2023/03/08 14:03:19;;;;;;;20.50;10.80;;;;;;;;;;107078;1273;22519;-74
2023/03/08 14:05:47;;;;;;;23.40;12.60;;;;;;;;;;107243;1273;25312;-73
2023/03/08 14:08:24;;;;;;;31.20;14.60;;;;;;;;;;107261;1267;23027;-74
2023/03/08 14:11:00;;;;;;;25.30;14.50;;;;;;;;;;107253;1253;22610;-76
2023/03/08 14:13:30;;;;;;;25.80;14.40;;;;;;;;;;107167;1251;22534;-74
2023/03/08 14:16:05;;;;;;;27.30;13.90;;;;;;;;;;107139;1273;25464;-74
2023/03/08 14:18:59;;;;;;;21.90;11.60;;;;;;;;;;107000;1273;25450;-76
2023/03/08 14:21:46;;;;;;;21.10;11.40;;;;;;;;;;107114;1254;22523;-75
2023/03/08 14:24:22;;;;;;;25.10;12.70;;;;;;;;;;107096;1273;22490;-78
2023/03/08 14:26:55;;;;;;;23.10;11.80;;;;;;;;;;107328;1273;22525;-74
2023/03/08 14:29:33;;;;;;;23.10;11.50;;;;;;;;;;107107;1273;22647;-74
2023/03/08 14:32:29;;;;;;;23.30;11.50;;;;;;;;;;106832;1256;24367;-75
2023/03/08 14:35:13;;;;;;;22.00;10.50;;;;;;;;;;106966;1272;22543;-75
2023/03/08 14:37:45;;;;;;;18.60;9.60;;;;;;;;;;107135;1273;23899;-76
2023/03/08 14:40:18;;;;;;;20.20;10.60;;;;;;;;;;107188;1251;22624;-75
2023/03/08 14:42:58;;;;;;;19.80;10.70;;;;;;;;;;106990;1273;25470;-77
2023/03/08 14:45:25;;;;;;;29.00;14.20;;;;;;;;;;107115;1273;24361;-77
2023/03/08 14:48:13;;;;;;;30.70;14.20;;;;;;;;;;106957;1273;22529;-76
2023/03/08 14:50:56;;;;;;;31.00;13.00;;;;;;;;;;107078;1251;24218;-77
2023/03/08 14:53:30;;;;;;;28.80;13.40;;;;;;;;;;106831;1274;25343;-78
2023/03/08 14:56:04;;;;;;;27.80;11.90;;;;;;;;;;106969;1273;23114;-76
2023/03/08 14:58:49;;;;;;;25.30;11.70;;;;;;;;;;107178;1273;22530;-75
2023/03/08 15:01:52;;;;;;;29.80;12.90;;;;;;;;;;107120;1254;22526;-77
2023/03/08 15:04:51;;;;;;;27.20;13.10;;;;;;;;;;106962;1273;25389;-74
2023/03/08 15:07:39;;;;;;;28.40;12.10;;;;;;;;;;107133;1273;22580;-77
2023/03/08 15:10:33;;;;;;;26.70;12.40;;;;;;;;;;107165;1266;22606;-75
2023/03/08 15:13:20;;;;;;;26.60;13.00;;;;;;;;;;106915;1257;24183;-79
2023/03/08 15:15:48;;;;;;;28.80;14.00;;;;;;;;;;107072;1267;24341;-76
2023/03/08 15:18:21;;;;;;;29.80;14.30;;;;;;;;;;107136;1267;22737;-75
2023/03/08 15:21:13;;;;;;;32.20;14.70;;;;;;;;;;107035;1251;24183;-75
2023/03/08 15:23:52;;;;;;;29.70;14.40;;;;;;;;;;106962;1267;24016;-76
2023/03/08 15:26:27;;;;;;;35.90;15.90;;;;;;;;;;107015;1267;22534;-75
2023/03/08 15:29:13;;;;;;;30.30;13.30;;;;;;;;;;106996;1266;25343;-78
2023/03/08 15:31:43;;;;;;;29.20;12.50;;;;;;;;;;106939;1256;24193;-74
2023/03/08 15:34:13;;;;;;;27.80;12.70;;;;;;;;;;106971;1267;22569;-76
2023/03/08 15:37:09;;;;;;;19.10;9.00;;;;;;;;;;107129;1267;22523;-77
2023/03/08 15:39:41;;;;;;;20.40;9.30;;;;;;;;;;106929;1265;25468;-74
2023/03/08 15:42:13;;;;;;;21.60;10.60;;;;;;;;;;106981;1257;22538;-75
2023/03/08 15:44:48;;;;;;;23.70;10.80;;;;;;;;;;107041;1274;22499;-77
2023/03/08 15:54:24;;;;;;;26.50;12.50;;;;;;;;;;103702;1310;545674;-75
2023/03/08 15:57:24;;;;;;;;;;;;;;;;;;;;;
2023/03/08 15:59:51;;;;;;;21.50;10.00;;;;;;;;;;105983;1285;22666;-76
2023/03/08 16:02:29;;;;;;;23.90;10.20;;;;;;;;;;105908;1284;25423;-76
2023/03/08 16:04:56;;;;;;;25.50;11.40;;;;;;;;;;105914;1285;22552;-75
2023/03/08 16:07:34;;;;;;;34.30;14.40;;;;;;;;;;105810;1283;22562;-76
2023/03/08 16:10:05;;;;;;;56.90;20.10;;;;;;;;;;101882;1282;5408390;-75
2023/03/08 16:12:46;;;;;;;61.90;22.40;;;;;;;;;;105968;1287;24055;-75
2023/03/08 16:15:37;;;;;;;44.80;16.80;;;;;;;;;;106059;1281;25370;-75
2023/03/08 16:18:09;;;;;;;34.50;14.90;;;;;;;;;;105950;1270;22544;-79
2023/03/08 16:20:46;;;;;;;45.10;16.80;;;;;;;;;;106107;1278;22536;-75
2023/03/08 16:23:13;;;;;;;38.80;15.50;;;;;;;;;;106407;1278;24202;-78
2023/03/08 16:26:25;;;;;;;34.10;13.80;;;;;;;;;;106207;1278;23153;-75
2023/03/08 16:29:02;;;;;;;30.40;12.70;;;;;;;;;;106393;1260;24739;-78
2023/03/08 16:34:28;;;;;;;30.60;12.40;;;;;;;;;;106718;1273;22539;-76
2023/03/08 16:38:01;;;;;;;26.40;11.10;;;;;;;;;;106778;1272;22567;-75
2023/03/08 16:40:18;;;;;;;22.10;10.50;;;;;;;;;;106375;1281;22655;-78
2023/03/08 16:42:48;;;;;;;30.60;11.90;;;;;;;;;;106401;1278;25475;-76
2023/03/08 16:45:16;;;;;;;42.20;16.20;;;;;;;;;;106283;1278;25333;-77
2023/03/08 16:47:50;;;;;;;35.60;13.70;;;;;;;;;;106336;1278;24370;-77